Time;durP1;ratioP1;P1;durP2;ratioP2;P2;SDS_P1;SDS_P2;PMS_P1;PMS_P2;Temp;Humidity;BMP_temperature;BMP_pressure;BME280_temperature;BME280_humidity;BME280_pressure;Samples;Min_cycle;Max_cycle;Signal;HPM_P1;HPM_P2
2024/04/01 00:02:14;;;;;;;;;8.20;7.40;;;;;19.72;100.00;97379.16;6035160;28;96608;-60
2024/04/01 00:05:17;;;;;;;;;10.40;8.00;;;;;19.70;98.99;97386.88;6049880;28;96709;-60
2024/04/01 00:08:20;;;;;;;;;11.00;6.00;;;;;19.59;100.00;97388.28;6029044;28;98549;-60
2024/04/01 00:11:22;;;;;;;;;8.75;6.75;;;;;19.43;100.00;97387.88;6043297;28;96492;-60
2024/04/01 00:14:25;;;;;;;;;9.40;7.00;;;;;19.44;100.00;97397.72;6050188;28;97818;-60
2024/04/01 00:17:27;;;;;;;;;13.80;10.00;;;;;19.48;100.00;97390.50;6049202;28;97006;-60
2024/04/01 00:20:28;;;;;;;;;10.00;8.00;;;;;19.53;100.00;97387.63;6031622;28;97142;-59
2024/04/01 00:23:31;;;;;;;;;6.00;5.25;;;;;19.55;100.00;97388.09;6034111;28;98022;-60
2024/04/01 00:26:32;;;;;;;;;10.00;7.00;;;;;19.56;100.00;97395.19;6047699;28;96770;-60
2024/04/01 00:29:35;;;;;;;;;8.20;6.20;;;;;19.57;100.00;97396.81;6034266;28;96693;-60
2024/04/01 00:32:37;;;;;;;;;8.00;7.00;;;;;19.60;100.00;97392.63;6055504;28;96514;-60
2024/04/01 00:35:39;;;;;;;;;7.80;6.80;;;;;19.62;100.00;97388.47;6024105;28;96354;-60
2024/04/01 00:38:41;;;;;;;;;12.00;8.00;;;;;19.60;100.00;97385.22;6047465;28;96291;-60
2024/04/01 00:41:43;;;;;;;;;6.60;5.00;;;;;19.62;100.00;97393.13;6033622;28;98656;-60
2024/04/01 00:44:46;;;;;;;;;8.00;6.00;;;;;19.62;100.00;97377.53;6050007;28;96468;-60
2024/04/01 00:47:49;;;;;;;;;9.60;8.60;;;;;19.65;100.00;97381.53;6056978;28;97021;-58
2024/04/01 00:50:52;;;;;;;;;7.00;6.60;;;;;19.65;100.00;97382.34;6062892;28;96700;-58
2024/04/01 00:53:55;;;;;;;;;8.60;7.60;;;;;19.65;100.00;97374.16;6152397;23;97947;-58
2024/04/01 00:56:57;;;;;;;;;9.60;6.00;;;;;19.63;100.00;97368.22;6105531;28;97160;-59
2024/04/01 01:03:31;;;;;;;;;7.80;5.20;;;;;19.57;100.00;97368.66;6106239;23;97380;-61
2024/04/01 01:06:34;;;;;;;;;8.00;7.00;;;;;19.53;100.00;97371.22;6048949;28;96383;-62
2024/04/01 01:09:39;;;;;;;;;5.60;5.00;;;;;19.47;100.00;97369.75;6049585;28;98325;-62
2024/04/01 01:12:40;;;;;;;;;7.80;6.20;;;;;19.42;100.00;97373.41;6033716;28;96954;-62
2024/04/01 01:15:45;;;;;;;;;7.00;6.00;;;;;19.38;100.00;97377.91;6047735;28;96308;-62
2024/04/01 01:18:47;;;;;;;;;8.00;6.00;;;;;19.40;100.00;97374.84;6033020;28;98778;-62
2024/04/01 01:21:49;;;;;;;;;6.40;5.00;;;;;19.33;100.00;97379.94;6041089;28;98416;-63
2024/04/01 01:24:52;;;;;;;;;7.00;5.00;;;;;19.30;100.00;97373.16;6022984;28;96541;-62
2024/04/01 01:27:54;;;;;;;;;8.40;6.40;;;;;19.30;100.00;97375.13;6005877;28;98588;-62
2024/04/01 01:30:55;;;;;;;;;7.40;5.00;;;;;19.24;100.00;97360.78;5999668;28;96988;-62
2024/04/01 01:33:58;;;;;;;;;6.00;5.00;;;;;19.14;100.00;97360.25;6025277;28;96302;-62
2024/04/01 01:36:59;;;;;;;;;6.00;5.00;;;;;19.10;100.00;97359.28;6025243;28;97075;-62
2024/04/01 01:40:04;;;;;;;;;7.40;5.00;;;;;19.13;100.00;97369.56;6010628;28;96444;-61
2024/04/01 01:43:05;;;;;;;;;8.80;6.00;;;;;19.06;100.00;97377.41;6025527;28;97588;-62
2024/04/01 01:46:07;;;;;;;;;9.20;7.00;;;;;18.94;100.00;97378.78;6004750;28;97592;-62
2024/04/01 01:49:08;;;;;;;;;7.00;5.00;;;;;18.78;100.00;97380.28;6017577;29;97032;-62
2024/04/01 01:52:10;;;;;;;;;6.00;5.00;;;;;18.65;100.00;97386.63;6011055;28;98728;-62
2024/04/01 01:55:14;;;;;;;;;9.40;7.00;;;;;18.39;100.00;97372.75;6013623;28;99177;-62
2024/04/01 01:58:15;;;;;;;;;10.00;6.00;;;;;18.35;100.00;97381.84;6029803;28;97665;-62
2024/04/01 02:01:17;;;;;;;;;7.00;7.00;;;;;18.15;100.00;97389.38;6014619;28;96582;-62
2024/04/01 02:04:20;;;;;;;;;6.25;5.25;;;;;18.05;100.00;97395.06;6013775;28;96491;-62
2024/04/01 02:07:21;;;;;;;;;8.20;6.00;;;;;17.97;100.00;97395.78;6019882;28;96551;-58
2024/04/01 02:10:26;;;;;;;;;9.00;7.00;;;;;17.91;100.00;97390.75;6031304;28;96376;-57
2024/04/01 02:13:27;;;;;;;;;9.60;7.00;;;;;17.92;100.00;97385.00;6004714;28;96666;-58
2024/04/01 02:16:29;;;;;;;;;5.40;5.00;;;;;17.96;100.00;97386.00;6032829;28;96542;-57
2024/04/01 02:19:31;;;;;;;;;6.40;6.00;;;;;17.98;100.00;97372.88;6024420;28;96947;-58
2024/04/01 02:22:36;;;;;;;;;8.00;5.80;;;;;18.02;100.00;97384.78;6009911;29;98493;-58
2024/04/01 02:25:39;;;;;;;;;6.75;5.00;;;;;17.97;100.00;97390.34;6015365;28;99113;-58
2024/04/01 02:28:40;;;;;;;;;7.00;5.75;;;;;17.82;100.00;97398.84;6017675;28;96666;-58
2024/04/01 02:31:43;;;;;;;;;8.00;5.00;;;;;17.82;100.00;97393.38;6026429;28;96288;-58
2024/04/01 02:34:44;;;;;;;;;8.00;6.00;;;;;17.87;100.00;97389.75;6029463;28;96282;-57
2024/04/01 02:37:46;;;;;;;;;7.00;5.00;;;;;17.87;100.00;97373.38;6013581;28;96941;-58
2024/04/01 02:40:49;;;;;;;;;7.80;5.00;;;;;17.84;100.00;97374.78;6016303;28;96673;-59
2024/04/01 02:43:51;;;;;;;;;5.50;5.00;;;;;17.81;100.00;97389.03;6029399;28;96407;-58
2024/04/01 02:46:53;;;;;;;;;8.00;6.40;;;;;17.74;100.00;97369.53;6016737;28;96311;-58
2024/04/01 02:49:56;;;;;;;;;5.50;4.50;;;;;17.80;100.00;97376.50;6017404;28;96427;-58
2024/04/01 02:52:59;;;;;;;;;6.00;4.60;;;;;17.84;100.00;97376.72;6030623;28;96427;-58
2024/04/01 02:56:01;;;;;;;;;5.00;4.60;;;;;17.92;100.00;97374.09;6017497;28;97347;-57
2024/04/01 02:59:09;;;;;;;;;9.50;7.00;;;;;18.00;100.00;97381.53;6016873;28;96282;-57
2024/04/01 03:02:11;;;;;;;;;7.60;6.20;;;;;18.00;100.00;97383.44;6033296;28;96446;-58
2024/04/01 03:05:13;;;;;;;;;8.00;6.00;;;;;17.87;100.00;97379.66;5999997;28;99052;-57
2024/04/01 03:08:16;;;;;;;;;5.60;4.00;;;;;17.62;100.00;97374.72;6007765;28;98967;-59
2024/04/01 03:11:20;;;;;;;;;10.00;7.00;;;;;17.59;100.00;97373.38;6032320;28;96235;-59
2024/04/01 03:14:22;;;;;;;;;8.00;6.00;;;;;17.55;100.00;97364.19;6031958;28;97531;-57
2024/04/01 03:17:25;;;;;;;;;6.00;4.60;;;;;17.58;100.00;97339.06;6016282;28;96462;-62
2024/04/01 03:20:27;;;;;;;;;6.50;5.50;;;;;17.66;100.00;97348.47;6043652;28;96387;-63
2024/04/01 03:23:28;;;;;;;;;7.00;5.00;;;;;17.66;100.00;97321.22;6028758;28;97196;-62
2024/04/01 03:26:32;;;;;;;;;5.60;4.00;;;;;17.77;100.00;97340.88;6027243;28;96391;-62
2024/04/01 03:29:33;;;;;;;;;6.00;4.40;;;;;17.80;100.00;97337.53;6028190;28;96368;-62
2024/04/01 03:32:35;;;;;;;;;6.00;6.00;;;;;17.79;100.00;97342.19;6018315;28;96317;-62
2024/04/01 03:35:36;;;;;;;;;7.00;5.40;;;;;17.78;100.00;97348.78;6003176;28;96534;-62
2024/04/01 03:38:39;;;;;;;;;7.60;6.00;;;;;17.68;100.00;97346.25;6012659;28;96886;-62
2024/04/01 03:41:42;;;;;;;;;6.00;4.60;;;;;17.68;100.00;97343.53;6018095;28;96902;-62
2024/04/01 03:44:44;;;;;;;;;5.00;5.00;;;;;17.70;100.00;97335.84;6012982;28;97044;-62
2024/04/01 03:47:45;;;;;;;;;7.40;7.00;;;;;17.73;100.00;97346.97;6025142;28;96473;-62
2024/04/01 03:50:48;;;;;;;;;5.25;4.00;;;;;17.80;100.00;97356.63;6012166;28;98453;-62
2024/04/01 03:53:49;;;;;;;;;4.25;4.00;;;;;17.80;100.00;97362.88;6026109;28;96977;-62
2024/04/01 03:56:52;;;;;;;;;7.00;6.00;;;;;17.82;100.00;97368.03;6001378;28;96397;-62
2024/04/01 03:59:54;;;;;;;;;8.00;5.00;;;;;17.88;100.00;97372.28;6007887;28;96863;-62
2024/04/01 04:02:56;;;;;;;;;7.80;4.80;;;;;17.93;100.00;97369.44;6024936;28;96333;-62
2024/04/01 04:05:57;;;;;;;;;5.50;5.00;;;;;17.97;100.00;97367.72;6026891;28;96746;-62
2024/04/01 04:08:59;;;;;;;;;6.00;5.00;;;;;17.97;100.00;97365.78;6012050;28;96552;-62
2024/04/01 04:12:03;;;;;;;;;10.80;7.00;;;;;17.97;100.00;97343.97;6006952;28;96628;-62
2024/04/01 04:15:07;;;;;;;;;5.40;5.00;;;;;18.01;100.00;97361.34;6026279;28;96530;-62
2024/04/01 04:18:08;;;;;;;;;7.33;5.67;;;;;18.07;100.00;97367.50;6029090;28;96594;-62
2024/04/01 04:21:11;;;;;;;;;7.25;5.00;;;;;18.10;100.00;97370.41;6010348;28;98584;-62
2024/04/01 04:24:15;;;;;;;;;9.00;5.00;;;;;18.15;100.00;97373.00;6011384;28;96306;-62
2024/04/01 04:27:17;;;;;;;;;6.40;4.80;;;;;18.21;100.00;97370.97;6028613;28;96728;-62
2024/04/01 04:30:19;;;;;;;;;7.00;5.00;;;;;18.27;100.00;97368.94;6023929;28;97484;-62
2024/04/01 04:33:21;;;;;;;;;12.60;11.00;;;;;18.31;100.00;97373.47;6026009;28;96450;-62
2024/04/01 04:36:23;;;;;;;;;7.40;6.00;;;;;18.38;100.00;97364.84;6005718;28;97550;-62
2024/04/01 04:39:24;;;;;;;;;8.00;7.00;;;;;18.26;100.00;97348.25;6006858;28;99277;-62
2024/04/01 04:42:28;;;;;;;;;6.50;5.50;;;;;18.45;100.00;97365.25;6023845;28;96375;-62
2024/04/01 04:45:31;;;;;;;;;7.00;5.80;;;;;18.53;100.00;97362.59;5996682;28;96487;-62
2024/04/01 04:48:32;;;;;;;;;8.00;4.00;;;;;18.60;100.00;97362.19;6020594;28;96125;-62
2024/04/01 04:51:34;;;;;;;;;6.00;5.60;;;;;18.67;100.00;97340.69;6024249;28;98366;-62
2024/04/01 04:54:35;;;;;;;;;10.60;7.00;;;;;18.74;100.00;97343.81;6021580;28;96754;-62
2024/04/01 04:57:39;;;;;;;;;7.00;6.00;;;;;18.87;100.00;97339.38;6009275;28;97028;-62
2024/04/01 05:00:40;;;;;;;;;9.80;8.00;;;;;18.98;100.00;97332.53;6023830;28;96826;-62
2024/04/01 05:03:44;;;;;;;;;8.40;7.00;;;;;19.08;100.00;97323.25;6023147;28;97179;-62
2024/04/01 05:06:46;;;;;;;;;7.80;6.00;;;;;19.13;100.00;97307.53;6011216;28;96625;-62
2024/04/01 05:09:48;;;;;;;;;10.00;7.60;;;;;19.20;100.00;97309.84;6026356;28;96646;-62
2024/04/01 05:12:51;;;;;;;;;10.00;8.40;;;;;19.25;100.00;97309.69;6004889;28;96679;-62
2024/04/01 05:15:53;;;;;;;;;12.00;9.40;;;;;19.40;100.00;97318.25;6026131;28;96392;-62
2024/04/01 05:18:54;;;;;;;;;11.00;8.40;;;;;19.55;100.00;97308.06;6018134;28;96499;-62
2024/04/01 05:21:57;;;;;;;;;13.20;9.40;;;;;19.64;100.00;97303.41;6022113;28;96830;-62
2024/04/01 05:24:58;;;;;;;;;14.00;11.00;;;;;19.77;100.00;97313.41;6014394;29;96387;-62
2024/04/01 05:28:01;;;;;;;;;12.50;9.00;;;;;19.96;100.00;97316.63;6022959;28;96970;-62
2024/04/01 05:31:03;;;;;;;;;9.00;7.75;;;;;20.22;100.00;97303.78;6025982;28;96863;-62
2024/04/01 05:34:05;;;;;;;;;17.60;11.60;;;;;20.45;100.00;97300.88;6014235;28;96671;-63
2024/04/01 05:37:07;;;;;;;;;17.80;11.00;;;;;20.56;100.00;97291.22;6021055;28;97062;-62
2024/04/01 05:40:09;;;;;;;;;9.50;8.50;;;;;20.84;100.00;97276.00;6020811;28;96446;-62
2024/04/01 05:43:12;;;;;;;;;14.60;9.80;;;;;20.86;100.00;97275.69;6001629;28;98651;-62
2024/04/01 05:46:15;;;;;;;;;15.60;10.00;;;;;21.02;100.00;97263.03;6006087;28;96864;-62
2024/04/01 05:49:17;;;;;;;;;12.40;9.80;;;;;21.17;100.00;97260.59;6012907;28;96900;-62
2024/04/01 05:52:19;;;;;;;;;12.25;9.00;;;;;21.35;100.00;97252.28;6014883;28;96354;-62
2024/04/01 05:55:22;;;;;;;;;11.00;8.00;;;;;21.71;100.00;97260.78;6016030;28;96393;-62
2024/04/01 05:58:24;;;;;;;;;13.00;10.60;;;;;22.01;100.00;97278.00;6022813;28;97100;-62
2024/04/01 06:01:26;;;;;;;;;9.40;8.00;;;;;22.39;100.00;97258.63;6018824;28;96426;-62
2024/04/01 06:04:28;;;;;;;;;9.00;8.00;;;;;22.59;100.00;97244.03;6013659;28;97456;-62
2024/04/01 06:07:30;;;;;;;;;13.80;10.00;;;;;22.81;99.73;97249.19;5990261;28;97367;-62
2024/04/01 06:10:32;;;;;;;;;14.40;10.00;;;;;22.98;98.72;97255.59;6019831;28;96773;-62
2024/04/01 06:13:35;;;;;;;;;10.00;8.40;;;;;23.24;98.21;97229.41;6021591;28;96354;-62
2024/04/01 06:16:37;;;;;;;;;13.00;9.00;;;;;23.29;96.13;97244.88;6024511;28;97318;-62
2024/04/01 06:19:39;;;;;;;;;11.75;10.00;;;;;23.53;96.39;97279.84;6039537;28;96407;-62
2024/04/01 06:22:42;;;;;;;;;14.40;9.20;;;;;23.60;93.57;97258.06;6020640;28;97416;-62
2024/04/01 06:25:44;;;;;;;;;13.00;10.00;;;;;23.78;94.12;97251.16;6004920;28;97229;-62
2024/04/01 06:28:48;;;;;;;;;13.20;9.00;;;;;23.57;93.43;97251.28;6019472;28;96805;-62
2024/04/01 06:31:50;;;;;;;;;10.00;7.50;;;;;23.44;93.87;97249.69;6005206;28;98593;-62
2024/04/01 06:34:52;;;;;;;;;9.00;8.00;;;;;23.31;93.29;97257.09;6012940;28;97896;-62
2024/04/01 06:37:53;;;;;;;;;11.00;9.00;;;;;23.13;94.33;97307.16;6022107;28;97219;-62
2024/04/01 06:40:56;;;;;;;;;13.80;11.00;;;;;23.23;94.57;97270.97;6017696;28;96578;-62
2024/04/01 06:43:58;;;;;;;;;10.60;8.00;;;;;23.16;94.28;97287.25;6023050;28;96492;-63
2024/04/01 06:47:01;;;;;;;;;10.40;8.60;;;;;23.18;95.05;97287.69;6022465;28;97563;-62
2024/04/01 06:50:02;;;;;;;;;12.00;9.60;;;;;23.12;96.09;97281.63;6028818;28;96487;-59
2024/04/01 06:53:05;;;;;;;;;11.00;10.00;;;;;23.25;95.03;97279.69;6001247;28;97130;-58
2024/04/01 06:56:07;;;;;;;;;13.60;10.00;;;;;23.43;94.64;97250.00;6034920;28;96326;-59
2024/04/01 06:59:11;;;;;;;;;10.40;8.00;;;;;23.23;93.26;97255.28;6048216;28;97150;-58
2024/04/01 07:02:13;;;;;;;;;15.00;9.25;;;;;23.55;93.07;97239.03;6017035;28;96355;-57
2024/04/01 07:05:14;;;;;;;;;11.00;8.00;;;;;23.65;92.67;97238.56;6016885;28;96530;-57
2024/04/01 07:08:16;;;;;;;;;12.20;8.20;;;;;23.62;93.33;97220.00;6032967;28;96328;-58
2024/04/01 07:11:17;;;;;;;;;12.75;10.00;;;;;23.90;92.89;97231.03;6017733;28;96856;-58
2024/04/01 07:14:21;;;;;;;;;11.00;8.00;;;;;24.42;90.79;97228.25;6016702;28;96544;-58
2024/04/01 07:17:22;;;;;;;;;11.00;8.60;;;;;25.01;88.39;97215.28;6015099;28;96662;-60
2024/04/01 07:20:25;;;;;;;;;12.00;8.00;;;;;25.72;85.04;97205.13;6014939;28;96710;-58
2024/04/01 07:23:26;;;;;;;;;11.00;8.80;;;;;26.68;80.95;97205.91;6010110;28;96581;-58
2024/04/01 07:26:28;;;;;;;;;13.00;9.00;;;;;27.48;73.35;97193.03;6032150;28;96239;-59
2024/04/01 07:29:31;;;;;;;;;11.00;8.60;;;;;28.59;67.42;97190.56;6030898;28;96704;-59
2024/04/01 07:32:34;;;;;;;;;11.50;9.00;;;;;29.67;63.19;97189.09;6014194;28;96743;-58
2024/04/01 07:35:36;;;;;;;;;10.60;8.40;;;;;30.52;57.72;97186.75;6013941;28;96663;-60
2024/04/01 07:38:38;;;;;;;;;7.20;6.20;;;;;31.55;53.36;97184.84;6015320;28;98571;-60
2024/04/01 07:41:39;;;;;;;;;13.25;8.00;;;;;33.14;51.43;97183.31;6012509;28;96288;-59
2024/04/01 07:44:43;;;;;;;;;12.00;10.00;;;;;34.55;46.24;97183.84;6009361;28;96348;-59
2024/04/01 07:47:45;;;;;;;;;10.50;8.00;;;;;35.99;43.91;97202.34;6025964;28;96793;-59
2024/04/01 07:50:47;;;;;;;;;9.00;7.00;;;;;36.86;38.19;97214.19;6021657;28;97649;-59
2024/04/01 07:53:49;;;;;;;;;14.00;8.80;;;;;38.20;36.52;97218.47;6034922;28;96874;-60
2024/04/01 07:56:50;;;;;;;;;10.00;7.00;;;;;38.45;37.07;97212.16;6009817;28;96390;-60
2024/04/01 07:59:53;;;;;;;;;12.00;8.00;;;;;38.73;37.15;97210.50;6029477;28;96638;-64
2024/04/01 08:02:55;;;;;;;;;10.00;9.00;;;;;38.91;36.62;97208.75;6011739;28;96378;-64
2024/04/01 08:05:57;;;;;;;;;13.25;11.25;;;;;39.77;33.72;97215.25;6008222;28;97083;-64
2024/04/01 08:08:58;;;;;;;;;12.00;9.00;;;;;40.66;32.14;97221.31;6024833;28;96489;-64
2024/04/01 08:12:00;;;;;;;;;10.40;8.00;;;;;41.20;32.13;97200.97;6026382;28;96346;-64
2024/04/01 08:15:03;;;;;;;;;12.80;8.40;;;;;42.68;31.14;97205.06;6025375;28;96627;-64
2024/04/01 08:18:06;;;;;;;;;12.40;10.00;;;;;44.36;29.55;97201.13;6032534;28;96844;-64
2024/04/01 08:21:08;;;;;;;;;13.00;8.80;;;;;45.39;27.15;97195.38;6010808;28;96854;-65
2024/04/01 08:24:11;;;;;;;;;11.50;9.00;;;;;46.20;25.72;97187.69;6024010;28;97561;-65
2024/04/01 08:27:14;;;;;;;;;12.00;9.00;;;;;45.77;24.87;97174.44;6023647;28;96626;-65
2024/04/01 08:30:17;;;;;;;;;12.75;10.00;;;;;46.01;25.94;97163.63;6009809;28;97638;-65
2024/04/01 08:33:19;;;;;;;;;13.60;9.60;;;;;45.62;25.23;97154.59;6023163;28;96784;-65
2024/04/01 08:36:22;;;;;;;;;15.50;9.50;;;;;44.81;25.40;97143.03;6007210;28;98729;-65
2024/04/01 08:39:23;;;;;;;;;10.80;9.00;;;;;44.26;26.15;97118.06;6017017;28;96723;-65
2024/04/01 08:42:27;;;;;;;;;15.60;11.40;;;;;42.21;27.12;97131.94;5994153;28;98366;-65
2024/04/01 08:45:30;;;;;;;;;13.60;11.00;;;;;40.15;28.82;97150.94;6019780;28;97567;-64
2024/04/01 08:48:34;;;;;;;;;14.00;11.00;;;;;37.96;30.73;97105.38;6025908;28;96659;-64
2024/04/01 08:51:36;;;;;;;;;10.40;9.40;;;;;37.50;33.45;97123.50;6022381;28;96350;-64
2024/04/01 08:54:39;;;;;;;;;13.40;11.00;;;;;36.91;33.32;97115.38;6021754;28;96783;-63
2024/04/01 08:57:40;;;;;;;;;12.60;10.00;;;;;36.36;34.52;97110.63;6023485;28;97349;-63
2024/04/01 09:00:44;;;;;;;;;14.25;12.00;;;;;36.10;35.57;97114.38;6026289;28;97576;-63
2024/04/01 09:03:47;;;;;;;;;16.00;10.40;;;;;36.32;35.44;97104.28;6024493;28;96337;-63
2024/04/01 09:06:50;;;;;;;;;13.00;10.00;;;;;36.90;33.67;97111.75;6025671;28;96619;-62
2024/04/01 09:09:51;;;;;;;;;15.00;12.00;;;;;37.24;33.62;97099.31;6033022;28;97115;-64
2024/04/01 09:12:55;;;;;;;;;13.40;10.00;;;;;37.83;33.16;97086.91;6033967;28;96282;-65
2024/04/01 09:15:57;;;;;;;;;14.40;11.00;;;;;38.04;32.72;97101.13;6033282;28;96982;-65
2024/04/01 09:19:06;;;;;;;;;12.50;8.50;;;;;38.34;31.81;97104.69;6034007;28;96438;-64
2024/04/01 09:22:08;;;;;;;;;14.60;12.00;;;;;38.30;32.23;97104.00;6034594;28;96444;-65
2024/04/01 09:25:10;;;;;;;;;16.00;11.00;;;;;37.80;32.49;97093.38;6035929;28;96651;-64
2024/04/01 09:28:12;;;;;;;;;15.60;11.00;;;;;37.93;32.57;97088.59;6016831;28;98377;-64
2024/04/01 09:31:15;;;;;;;;;14.00;11.60;;;;;38.17;31.21;97080.69;6032257;28;96315;-64
2024/04/01 09:34:18;;;;;;;;;14.50;11.50;;;;;38.78;31.07;97077.56;6015828;28;96862;-65
2024/04/01 09:37:20;;;;;;;;;10.50;9.00;;;;;39.17;30.55;97079.88;6015379;28;96470;-64
2024/04/01 09:40:23;;;;;;;;;14.00;11.50;;;;;39.65;30.62;97077.81;6032563;28;96526;-65
2024/04/01 09:43:26;;;;;;;;;12.40;10.00;;;;;40.16;30.41;97073.50;6033311;28;96441;-65
2024/04/01 09:46:32;;;;;;;;;13.60;9.00;;;;;40.69;29.31;97067.81;6034107;28;97285;-64
2024/04/01 09:49:35;;;;;;;;;15.80;9.00;;;;;40.59;28.98;97088.78;6018203;28;96856;-65
2024/04/01 09:52:37;;;;;;;;;12.40;11.20;;;;;40.30;29.12;97057.28;6017515;28;96413;-65
2024/04/01 09:55:58;;;;;;;;;10.00;9.00;;;;;39.19;30.43;97059.72;6033237;28;97076;-64
2024/04/01 09:59:29;;;;;;;;;12.00;10.00;;;;;38.65;30.11;97055.06;6034052;28;96339;-65
2024/04/01 10:02:56;;;;;;;;;12.00;9.60;;;;;38.22;31.20;97052.75;6002133;28;96552;-65
2024/04/01 10:06:35;;;;;;;;;9.00;8.00;;;;;37.89;31.70;97054.16;6034322;28;96278;-64
2024/04/01 10:10:08;;;;;;;;;10.75;9.25;;;;;37.68;32.20;97047.13;6034772;28;96349;-65
2024/04/01 10:13:48;;;;;;;;;9.00;7.50;;;;;37.33;32.71;97045.28;6036071;28;96366;-65
2024/04/01 10:17:28;;;;;;;;;12.75;8.00;;;;;36.98;33.70;97049.81;6026987;28;96372;-67
2024/04/01 10:20:58;;;;;;;;;12.00;9.00;;;;;35.90;33.93;97052.69;6037529;28;96640;-63
2024/04/01 10:24:35;;;;;;;;;10.00;8.00;;;;;35.57;34.91;97046.16;6038325;28;96247;-65
2024/04/01 10:28:08;;;;;;;;;13.40;11.40;;;;;35.44;35.73;97039.59;5996447;28;96969;-65
2024/04/01 10:31:44;;;;;;;;;10.00;8.00;;;;;36.06;34.22;97016.28;6021427;28;97635;-64
2024/04/01 10:35:14;;;;;;;;;12.80;9.00;;;;;36.36;33.65;97020.84;6026241;28;96289;-64
2024/04/01 10:38:52;;;;;;;;;11.00;8.00;;;;;36.49;34.13;97018.91;6020740;28;98532;-65
2024/04/01 10:42:22;;;;;;;;;14.80;8.80;;;;;36.16;33.51;97020.09;6035068;28;96445;-64
2024/04/01 10:45:55;;;;;;;;;9.60;7.60;;;;;35.92;34.38;97033.44;6022089;28;97035;-65
2024/04/01 10:49:29;;;;;;;;;12.80;8.60;;;;;35.91;34.09;97038.25;6036823;28;96335;-66
2024/04/01 10:53:06;;;;;;;;;9.00;8.00;;;;;35.52;34.73;97027.84;6037402;28;96409;-66
2024/04/01 10:56:52;;;;;;;;;11.40;8.00;;;;;35.36;35.29;97022.16;6034631;28;96377;-64
2024/04/01 11:00:36;;;;;;;;;13.40;9.00;;;;;35.17;35.40;97014.50;6022152;28;96339;-66
2024/04/01 11:04:18;;;;;;;;;11.00;9.00;;;;;35.49;35.53;97009.06;5965090;29;96264;-66
2024/04/01 11:07:40;;;;;;;;;10.00;7.00;;;;;35.17;35.58;96989.31;5966411;29;96371;-65
2024/04/01 11:10:47;;;;;;;;;12.00;9.00;;;;;34.87;35.97;96995.84;5981809;29;96547;-64
2024/04/01 11:13:51;;;;;;;;;8.00;6.60;;;;;34.11;37.56;97002.25;5966504;29;96493;-65
2024/04/01 11:16:56;;;;;;;;;9.20;8.00;;;;;33.26;38.81;96994.94;5951255;29;96474;-64
2024/04/01 11:20:24;;;;;;;;;12.00;8.00;;;;;33.02;40.72;96985.63;5982237;29;96706;-64
2024/04/01 11:23:53;;;;;;;;;9.40;8.00;;;;;32.93;41.29;96968.56;5950199;29;96732;-65
2024/04/01 11:27:17;;;;;;;;;11.00;7.60;;;;;32.92;40.70;96969.78;5964295;29;96485;-63
2024/04/01 11:30:26;;;;;;;;;8.50;6.00;;;;;32.90;41.39;96961.00;5944866;29;96846;-61
2024/04/01 11:33:38;;;;;;;;;9.40;8.00;;;;;32.98;40.58;96954.97;5976676;28;97687;-59
2024/04/01 11:36:53;;;;;;;;;13.00;8.00;;;;;32.53;41.03;96948.59;6028091;28;97484;-62
2024/04/01 11:40:00;;;;;;;;;6.60;5.00;;;;;32.08;42.24;96952.53;6028158;28;96377;-60
2024/04/01 11:43:05;;;;;;;;;7.00;6.00;;;;;31.81;44.13;96953.09;6027891;28;98113;-60
2024/04/01 11:46:10;;;;;;;;;12.00;9.40;;;;;31.58;43.80;96940.91;6012255;28;96395;-61
2024/04/01 11:49:12;;;;;;;;;11.20;8.20;;;;;31.42;45.45;96941.38;6027221;28;96453;-61
2024/04/01 11:52:17;;;;;;;;;10.80;8.20;;;;;31.38;44.67;96949.75;6027830;28;96368;-61
2024/04/01 11:55:19;;;;;;;;;9.00;7.00;;;;;31.26;44.23;96929.94;6027380;28;96633;-61
2024/04/01 11:58:20;;;;;;;;;11.40;7.60;;;;;31.14;45.73;96945.06;6027508;28;96307;-61
2024/04/01 12:01:32;;;;;;;;;6.00;5.20;;;;;31.07;45.62;96939.56;6027266;28;96383;-61
2024/04/01 12:04:33;;;;;;;;;8.50;7.00;;;;;30.97;45.95;96932.78;6027000;28;96489;-60
2024/04/01 12:07:39;;;;;;;;;12.20;10.00;;;;;30.97;46.34;96930.00;6027173;28;96393;-60
2024/04/01 12:10:43;;;;;;;;;10.25;7.25;;;;;30.87;45.08;96927.25;6027431;28;96759;-61
2024/04/01 12:13:45;;;;;;;;;12.50;9.00;;;;;30.91;46.57;96931.63;6026980;28;96583;-61
2024/04/01 12:16:47;;;;;;;;;11.00;8.40;;;;;30.98;46.13;96936.38;6027536;28;96562;-61
2024/04/01 12:19:49;;;;;;;;;10.50;6.25;;;;;31.08;46.08;96932.78;6026473;28;96648;-61
2024/04/01 12:22:52;;;;;;;;;10.80;10.00;;;;;31.18;46.04;96931.16;6027212;28;96975;-61
2024/04/01 12:26:06;;;;;;;;;11.00;8.80;;;;;31.19;47.40;96922.38;5995781;28;97746;-61
2024/04/01 12:29:12;;;;;;;;;9.40;7.40;;;;;31.23;47.64;96922.38;6011714;28;96691;-61
2024/04/01 12:32:15;;;;;;;;;9.50;8.00;;;;;31.07;46.31;96922.06;6026926;28;96593;-61
2024/04/01 12:35:19;;;;;;;;;11.50;7.00;;;;;30.90;47.77;96907.75;6010439;28;98661;-61
2024/04/01 12:38:23;;;;;;;;;8.00;6.00;;;;;30.52;43.08;96915.03;6026906;28;96361;-62
2024/04/01 12:41:28;;;;;;;;;9.00;8.20;;;;;30.28;44.85;96912.25;6032330;28;96795;-58
2024/04/01 12:44:29;;;;;;;;;6.80;5.80;;;;;30.41;44.40;96930.09;6032954;28;96740;-59
2024/04/01 12:47:34;;;;;;;;;7.60;7.00;;;;;30.30;44.01;96924.53;6016726;28;96375;-58
2024/04/01 12:50:36;;;;;;;;;10.50;9.00;;;;;30.42;44.36;96910.25;6031544;28;96850;-59
2024/04/01 12:54:14;;;;;;;;;6.75;5.00;;;;;30.53;42.77;96916.63;6032824;28;96447;-59
2024/04/01 12:57:41;;;;;;;;;9.00;6.00;;;;;30.55;41.96;96913.41;6032486;28;96337;-58
2024/04/01 13:00:54;;;;;;;;;7.00;5.00;;;;;30.47;40.15;96906.28;6003984;28;96864;-58
2024/04/01 13:04:25;;;;;;;;;9.00;6.00;;;;;30.61;39.30;96897.91;6015063;28;98727;-58
2024/04/01 13:07:42;;;;;;;;;6.60;5.40;;;;;30.55;38.43;96910.63;6031618;28;96314;-59
2024/04/01 13:10:56;;;;;;;;;11.20;5.80;;;;;30.66;39.41;96911.41;6015779;28;96999;-60
2024/04/01 13:14:14;;;;;;;;;6.40;5.00;;;;;30.80;39.48;96910.56;6022460;28;96609;-59
2024/04/01 13:17:22;;;;;;;;;8.00;6.00;;;;;30.65;39.96;96904.25;6026777;28;96365;-58
2024/04/01 13:20:31;;;;;;;;;7.00;5.00;;;;;30.62;39.15;96902.28;6012243;28;96864;-61
2024/04/01 13:23:35;;;;;;;;;11.50;7.50;;;;;30.62;39.09;96910.63;6010298;28;96675;-59
2024/04/01 13:26:43;;;;;;;;;10.00;7.50;;;;;30.53;38.66;96910.25;6014190;28;97087;-58
2024/04/01 13:30:00;;;;;;;;;9.75;6.00;;;;;30.61;38.38;96908.25;6011607;28;96690;-59
2024/04/01 13:33:03;;;;;;;;;7.25;5.50;;;;;30.57;37.74;96899.13;6027022;28;96404;-58
2024/04/01 13:36:13;;;;;;;;;7.80;5.00;;;;;30.35;36.78;96890.78;6031180;28;96373;-59
2024/04/01 13:39:26;;;;;;;;;7.80;6.20;;;;;30.15;36.88;96903.53;6015279;28;99296;-59
2024/04/01 13:42:38;;;;;;;;;9.00;6.00;;;;;30.06;35.83;96905.88;6006573;28;98579;-60
2024/04/01 13:45:56;;;;;;;;;7.80;5.00;;;;;29.89;35.59;96898.34;5998500;28;96699;-59
2024/04/01 13:49:25;;;;;;;;;9.20;6.20;;;;;29.93;35.72;96899.16;6029423;28;96364;-61
2024/04/01 13:52:44;;;;;;;;;11.20;8.00;;;;;30.03;35.92;96907.50;6027961;28;96552;-64
2024/04/01 13:56:06;;;;;;;;;9.00;6.00;;;;;29.94;35.48;96904.31;6015242;28;96330;-63
2024/04/01 13:59:21;;;;;;;;;8.40;6.00;;;;;29.93;35.59;96910.25;6027126;28;96566;-64
2024/04/01 14:02:36;;;;;;;;;8.60;6.20;;;;;30.18;36.22;96926.94;6020751;28;96383;-65
2024/04/01 14:06:07;;;;;;;;;11.25;7.75;;;;;30.38;35.66;96922.56;6029148;28;96467;-64
2024/04/01 14:09:21;;;;;;;;;16.00;10.00;;;;;30.47;35.39;96904.31;6048141;28;96369;-65
2024/04/01 14:12:37;;;;;;;;;13.50;9.00;;;;;30.51;35.71;96899.53;6033241;28;96488;-64
2024/04/01 14:15:49;;;;;;;;;13.00;10.00;;;;;30.43;35.55;96899.91;6035706;28;96499;-64
2024/04/01 14:19:06;;;;;;;;;11.50;9.00;;;;;30.64;37.06;96907.47;6032677;28;96630;-65
2024/04/01 14:22:10;;;;;;;;;9.60;8.00;;;;;30.89;37.05;96900.59;6025547;28;96257;-64
2024/04/01 14:25:11;;;;;;;;;13.20;9.60;;;;;30.84;37.09;96905.78;6033456;28;96349;-64
2024/04/01 14:28:15;;;;;;;;;11.00;8.00;;;;;30.80;38.07;96888.31;6023375;28;96350;-65
2024/04/01 14:31:18;;;;;;;;;10.00;9.00;;;;;30.76;37.79;96891.13;6034242;28;96935;-64